Flight Track Log - Related Links

Times and Time Zones

All times are in EDT time to prevent confusion due to time zone crossing. See the UPS1295 flight status page for this flight to view local times or setup timezone preferences in your user account.

Time Position Orientation Groundspeed Altitude Reporting Facility
EDT Latitude Longitude Course Direction KTS MPH feet Rate Location/Type
Tue 01:01:52 AM 35.0510 -82.2530 322° Northwest 299 344 8,400  Level FlightAware ADS-B
Tue 01:02:07 AM 35.0630 -82.2640 323° Northwest 292 336 9,200 1,636 Climbing FlightAware ADS-B
Tue 01:02:47 AM 35.1030 -82.3020 322° Northwest 290 334 9,900 600 Climbing FlightAware ADS-B
Tue 01:03:17 AM 35.1300 -82.3280 322° Northwest 290 334 9,900 3,429 Level FlightAware ADS-B
Tue 01:03:57 AM 35.2080 -82.3940 325° Northwest 386 444 13,900 4,941 Climbing FlightAware ADS-B
Tue 01:04:25 AM 35.2522 -82.4344 323° Northwest 392 451 15,500 3,103 Climbing FlightAware ADS-B
Tue 01:04:55 AM 35.2968 -82.4751 323° Northwest 402 463 16,900 2,600 Climbing FlightAware ADS-B
Tue 01:05:25 AM 35.3424 -82.5169 323° Northwest 414 476 18,100 2,459 Climbing FlightAware ADS-B
Tue 01:05:56 AM 35.3894 -82.5597 323° Northwest 422 486 19,400 2,459 Climbing FlightAware ADS-B
Tue 01:06:26 AM 35.4369 -82.6032 323° Northwest 429 494 20,600 2,400 Climbing FlightAware ADS-B
Tue 01:06:56 AM 35.4851 -82.6490 322° Northwest 436 502 21,800 2,300 Climbing FlightAware ADS-B
Tue 01:07:26 AM 35.5343 -82.6940 323° Northwest 442 509 22,900 2,300 Climbing FlightAware ADS-B
Tue 01:07:56 AM 35.5836 -82.7395 323° Northwest 445 512 24,100 2,262 Climbing FlightAware ADS-B
Tue 01:08:27 AM 35.6338 -82.7855 323° Northwest 448 516 25,200 2,361 Climbing FlightAware ADS-B
Tue 01:08:57 AM 35.6837 -82.8315 323° Northwest 445 512 26,500 2,500 Climbing FlightAware ADS-B
Tue 01:09:27 AM 35.7334 -82.8791 322° Northwest 445 512 27,700 2,190 Climbing FlightAware ADS-B
Tue 01:10:00 AM 35.7880 -82.9298 323° Northwest 447 514 28,800 1,938 Climbing FlightAware ADS-B
Tue 01:10:32 AM 35.8280 -82.9660 324° Northwest 443 510 29,800 1,800 Climbing FlightAware ADS-B
Tue 01:10:40 AM 35.8535 -82.9895 323° Northwest 447 514 30,000 316 Climbing FlightAware ADS-B
Tue 01:11:10 AM 35.9035 -83.0371 322° Northwest 446 513 30,000  Level FlightAware ADS-B
Tue 01:11:41 AM 35.9537 -83.0832 323° Northwest 442 509 30,000  Level FlightAware ADS-B
Tue 01:12:12 AM 36.0036 -83.1303 323° Northwest 440 506 30,000  Level FlightAware ADS-B
Tue 01:12:42 AM 36.0535 -83.1774 323° Northwest 437 503 30,000  Level FlightAware ADS-B
Tue 01:13:14 AM 36.1040 -83.2243 323° Northwest 439 505 30,000  Level FlightAware ADS-B
Tue 01:13:44 AM 36.1532 -83.2702 323° Northwest 442 509 30,000  Level FlightAware ADS-B
Tue 01:14:14 AM 36.2022 -83.3162 323° Northwest 443 510 30,000  Level FlightAware ADS-B
Tue 01:14:44 AM 36.2512 -83.3639 322° Northwest 440 506 30,000  Level FlightAware ADS-B
Tue 01:15:15 AM 36.3012 -83.4112 323° Northwest 440 506 30,000  Level FlightAware ADS-B
Tue 01:15:46 AM 36.3515 -83.4588 323° Northwest 439 505 30,000  Level FlightAware ADS-B
Tue 01:16:16 AM 36.4003 -83.5047 323° Northwest 439 505 30,000  Level FlightAware ADS-B
Tue 01:16:47 AM 36.4494 -83.5508 323° Northwest 440 506 30,000  Level FlightAware ADS-B
Tue 01:17:17 AM 36.4986 -83.5968 323° Northwest 441 507 30,000  Level FlightAware ADS-B
Tue 01:17:47 AM 36.5479 -83.6448 322° Northwest 442 509 30,000  Level FlightAware ADS-B
Tue 01:18:18 AM 36.5975 -83.6913 323° Northwest 443 510 30,000  Level FlightAware ADS-B
Tue 01:18:48 AM 36.6471 -83.7396 322° Northwest 443 510 30,000  Level FlightAware ADS-B
Tue 01:19:19 AM 36.6975 -83.7878 323° Northwest 443 510 30,000  Level FlightAware ADS-B
Tue 01:19:49 AM 36.7467 -83.8347 323° Northwest 444 511 30,000  Level FlightAware ADS-B
Tue 01:20:22 AM 36.7993 -83.8850 323° Northwest 445 512 30,000  Level FlightAware ADS-B
Tue 01:20:53 AM 36.8497 -83.9334 322° Northwest 446 513 30,000  Level FlightAware ADS-B
Tue 01:21:23 AM 36.9000 -83.9823 322° Northwest 445 512 30,000 -1,059 Level FlightAware ADS-B
Tue 01:22:01 AM 36.9618 -84.0408 323° Northwest 448 516 28,800 -2,175 Descending FlightAware ADS-B
Tue 01:22:43 AM 37.0292 -84.1086 321° Northwest 442 509 27,100 -2,571 Descending FlightAware ADS-B
Tue 01:23:18 AM 37.0803 -84.1749 314° West 450 518 25,500 -2,687 Descending FlightAware ADS-B
Tue 01:23:50 AM 37.1258 -84.2358 313° West 447 514 24,100 -2,613 Descending FlightAware ADS-B
Tue 01:24:20 AM 37.1680 -84.2919 313° West 439 505 22,800 -2,656 Descending FlightAware ADS-B
Tue 01:24:51 AM 37.2100 -84.3475 313° West 436 502 21,400 -2,754 Descending FlightAware ADS-B
Tue 01:25:21 AM 37.2513 -84.4044 312° West 425 489 20,000 -2,656 Descending FlightAware ADS-B
Tue 01:25:52 AM 37.2915 -84.4581 313° West 416 479 18,700 -2,557 Descending FlightAware ADS-B
Tue 01:26:22 AM 37.3306 -84.5108 313° West 408 470 17,400 -2,239 Descending FlightAware ADS-B
Tue 01:26:59 AM 37.3672 -84.5614 313° West 411 473 16,200 -2,351 Descending Indianapolis Center
Tue 01:27:59 AM 37.4417 -84.6650 312° West 399 459 13,600 -912 Descending Indianapolis Center
Tue 01:33:47 AM 37.8550 -85.2270 312° West 365 420 10,000 -536 Descending FlightAware ADS-B
Tue 01:34:42 AM 37.9180 -85.3150 312° West 366 421 10,000  Level FlightAware ADS-B
Tue 01:35:17 AM 37.9560 -85.3690 312° West 365 420 10,000  Level FlightAware ADS-B
Tue 01:36:07 AM 38.0150 -85.4520 312° West 366 421 10,000  Level FlightAware ADS-B
Tue 01:36:47 AM 38.0550 -85.5080 312° West 307 353 10,000 -327 Level FlightAware ADS-B
Tue 01:37:02 AM 38.0680 -85.5250 314° West 294 338 9,700 -2,000 Descending FlightAware ADS-B
Tue 01:37:32 AM 38.0970 -85.5670 311° West 285 328 8,500 -2,400 Descending FlightAware ADS-B
Tue 01:37:47 AM 38.1120 -85.5820 322° Northwest 295 339 7,900 -2,100 Descending FlightAware ADS-B
Tue 01:38:12 AM 38.1450 -85.5990 338° Northwest 285 328 7,100 -1,964 Descending FlightAware ADS-B
Tue 01:38:42 AM 38.1790 -85.6160 339° North 274 315 6,100 -2,000 Descending FlightAware ADS-B
Tue 01:38:57 AM 38.1970 -85.6240 341° North 269 310 5,600 -1,950 Descending FlightAware ADS-B
Tue 01:39:22 AM 38.2280 -85.6350 344° North 268 308 4,800 -1,527 Descending FlightAware ADS-B
Tue 01:39:52 AM 38.2640 -85.6470 345° North 257 296 4,200 -1,200 Descending FlightAware ADS-B
Tue 01:40:07 AM 38.2810 -85.6530 345° North 254 292 3,900 -1,050 Descending FlightAware ADS-B
Tue 01:40:32 AM 38.3060 -85.6680 335° Northwest 227 261 3,500 -900 Descending FlightAware ADS-B
Tue 01:40:47 AM 38.3120 -85.6850 294° West 197 227 3,300 -533 Descending FlightAware ADS-B
Tue 01:41:17 AM 38.3100 -85.7170 265° West 178 205 3,100 -327 Descending FlightAware ADS-B
Tue 01:41:42 AM 38.3150 -85.7420 284° West 162 186 3,000 -120 Descending FlightAware ADS-B
Tue 01:42:07 AM 38.3190 -85.7640 283° West 156 180 3,000  Level FlightAware ADS-B
Tue 01:42:27 AM 38.3130 -85.7770 240° Southwest 139 160 3,000 200 Level FlightAware ADS-B
Tue 01:42:37 AM 38.3060 -85.7790 193° South 139 160 3,100 -600 Climbing FlightAware ADS-B
Tue 01:43:07 AM 38.2870 -85.7800 182° South 144 166 2,600 -800 Descending FlightAware ADS-B
Tue 01:43:37 AM 38.2690 -85.7750 168° South 120 138 2,300 -655 Descending FlightAware ADS-B
Tue 01:44:02 AM 38.2560 -85.7710 166° South 112 129 2,000 -655 Descending FlightAware ADS-B
Tue 01:44:32 AM 38.2400 -85.7660 166° South 118 136 1,700 -667 Descending FlightAware ADS-B
Tue 01:44:47 AM 38.2320 -85.7640 169° South 121 139 1,500 -750 Descending FlightAware ADS-B
Tue 01:45:12 AM 38.2170 -85.7590 165° South 124 143 1,200 -750 Descending FlightAware ADS-B
Tue 01:45:27 AM 38.2100 -85.7560 161° South 123 142 1,000 -750 Descending FlightAware ADS-B
Tue 01:45:52 AM 38.1950 -85.7520 168° South 125 144 700 -600 Descending FlightAware ADS-B
Tue 01:46:07 AM 38.1870 -85.7490 164° South 127 146 600 -400 Descending FlightAware ADS-B

Login

Don't have an account? Register now (free) for customized features, flight alerts, and more!